sensor_id;sensor_type;location;lat;lon;timestamp;P1;durP1;ratioP1;P2;durP2;ratioP2
15312;SDS011;7757;52.626;4.746;2023-02-17T00:02:04;12.93;;;3.25;;
15312;SDS011;7757;52.626;4.746;2023-02-17T00:04:52;12.32;;;3.10;;
15312;SDS011;7757;52.626;4.746;2023-02-17T00:07:38;11.52;;;2.80;;
15312;SDS011;7757;52.626;4.746;2023-02-17T00:10:23;13.88;;;2.95;;
15312;SDS011;7757;52.626;4.746;2023-02-17T00:13:08;12.02;;;2.72;;
15312;SDS011;7757;52.626;4.746;2023-02-17T00:15:54;11.60;;;2.60;;
15312;SDS011;7757;52.626;4.746;2023-02-17T00:18:39;10.35;;;2.40;;
15312;SDS011;7757;52.626;4.746;2023-02-17T00:21:27;12.93;;;2.88;;
15312;SDS011;7757;52.626;4.746;2023-02-17T00:24:14;10.80;;;2.55;;
15312;SDS011;7757;52.626;4.746;2023-02-17T00:26:59;13.02;;;2.88;;
15312;SDS011;7757;52.626;4.746;2023-02-17T00:29:45;12.85;;;3.00;;
15312;SDS011;7757;52.626;4.746;2023-02-17T00:32:30;12.32;;;2.72;;
15312;SDS011;7757;52.626;4.746;2023-02-17T00:35:15;12.35;;;3.20;;
15312;SDS011;7757;52.626;4.746;2023-02-17T00:38:02;14.88;;;3.08;;
15312;SDS011;7757;52.626;4.746;2023-02-17T00:40:48;13.73;;;2.80;;
15312;SDS011;7757;52.626;4.746;2023-02-17T00:43:33;10.77;;;2.42;;
15312;SDS011;7757;52.626;4.746;2023-02-17T00:46:19;15.60;;;2.90;;
15312;SDS011;7757;52.626;4.746;2023-02-17T00:49:04;12.18;;;3.08;;
15312;SDS011;7757;52.626;4.746;2023-02-17T00:51:49;11.65;;;2.90;;
15312;SDS011;7757;52.626;4.746;2023-02-17T00:54:37;11.88;;;2.60;;
15312;SDS011;7757;52.626;4.746;2023-02-17T00:57:23;14.32;;;2.90;;
15312;SDS011;7757;52.626;4.746;2023-02-17T01:00:09;11.50;;;2.80;;
15312;SDS011;7757;52.626;4.746;2023-02-17T01:02:55;13.23;;;2.67;;
15312;SDS011;7757;52.626;4.746;2023-02-17T01:05:41;11.70;;;2.90;;
15312;SDS011;7757;52.626;4.746;2023-02-17T01:08:27;10.02;;;2.67;;
15312;SDS011;7757;52.626;4.746;2023-02-17T01:11:16;12.35;;;2.85;;
15312;SDS011;7757;52.626;4.746;2023-02-17T01:14:02;12.38;;;2.85;;
15312;SDS011;7757;52.626;4.746;2023-02-17T01:16:49;13.07;;;3.13;;
15312;SDS011;7757;52.626;4.746;2023-02-17T01:19:35;15.27;;;2.85;;
15312;SDS011;7757;52.626;4.746;2023-02-17T01:22:21;13.70;;;2.95;;
15312;SDS011;7757;52.626;4.746;2023-02-17T01:25:06;12.35;;;2.75;;
15312;SDS011;7757;52.626;4.746;2023-02-17T01:27:54;11.57;;;3.58;;
15312;SDS011;7757;52.626;4.746;2023-02-17T01:30:39;12.35;;;2.60;;
15312;SDS011;7757;52.626;4.746;2023-02-17T01:33:24;13.63;;;3.10;;
15312;SDS011;7757;52.626;4.746;2023-02-17T01:36:11;11.15;;;3.00;;
15312;SDS011;7757;52.626;4.746;2023-02-17T01:38:57;12.18;;;2.63;;
15312;SDS011;7757;52.626;4.746;2023-02-17T01:41:43;15.75;;;3.25;;
15312;SDS011;7757;52.626;4.746;2023-02-17T01:44:31;12.50;;;2.83;;
15312;SDS011;7757;52.626;4.746;2023-02-17T01:47:17;11.35;;;3.10;;
15312;SDS011;7757;52.626;4.746;2023-02-17T01:50:02;11.82;;;2.88;;
15312;SDS011;7757;52.626;4.746;2023-02-17T01:52:48;10.57;;;2.85;;
15312;SDS011;7757;52.626;4.746;2023-02-17T01:55:35;13.80;;;3.03;;
15312;SDS011;7757;52.626;4.746;2023-02-17T01:58:23;12.65;;;3.30;;
15312;SDS011;7757;52.626;4.746;2023-02-17T02:01:13;12.40;;;3.00;;
15312;SDS011;7757;52.626;4.746;2023-02-17T02:03:58;15.23;;;3.55;;
15312;SDS011;7757;52.626;4.746;2023-02-17T02:06:46;15.02;;;3.35;;
15312;SDS011;7757;52.626;4.746;2023-02-17T02:09:33;11.52;;;3.60;;
15312;SDS011;7757;52.626;4.746;2023-02-17T02:12:23;13.13;;;3.42;;
15312;SDS011;7757;52.626;4.746;2023-02-17T02:15:11;16.98;;;3.65;;
15312;SDS011;7757;52.626;4.746;2023-02-17T02:18:04;13.60;;;3.58;;
15312;SDS011;7757;52.626;4.746;2023-02-17T02:21:14;13.73;;;3.53;;
15312;SDS011;7757;52.626;4.746;2023-02-17T02:24:22;15.45;;;3.90;;
15312;SDS011;7757;52.626;4.746;2023-02-17T02:27:17;13.68;;;3.45;;
15312;SDS011;7757;52.626;4.746;2023-02-17T02:30:33;13.18;;;3.47;;
15312;SDS011;7757;52.626;4.746;2023-02-17T02:33:32;13.25;;;3.70;;
15312;SDS011;7757;52.626;4.746;2023-02-17T02:39:13;15.07;;;4.00;;
15312;SDS011;7757;52.626;4.746;2023-02-17T02:42:02;13.68;;;3.80;;
15312;SDS011;7757;52.626;4.746;2023-02-17T02:44:51;14.90;;;4.03;;
15312;SDS011;7757;52.626;4.746;2023-02-17T02:47:44;14.52;;;3.88;;
15312;SDS011;7757;52.626;4.746;2023-02-17T02:53:33;14.02;;;4.15;;
15312;SDS011;7757;52.626;4.746;2023-02-17T02:56:34;14.68;;;4.10;;
15312;SDS011;7757;52.626;4.746;2023-02-17T02:59:30;15.63;;;4.30;;
15312;SDS011;7757;52.626;4.746;2023-02-17T03:02:28;14.77;;;3.80;;
15312;SDS011;7757;52.626;4.746;2023-02-17T03:05:21;15.80;;;4.65;;
15312;SDS011;7757;52.626;4.746;2023-02-17T03:08:14;13.43;;;4.18;;
15312;SDS011;7757;52.626;4.746;2023-02-17T03:11:04;13.38;;;4.00;;
15312;SDS011;7757;52.626;4.746;2023-02-17T03:13:50;13.18;;;4.00;;
15312;SDS011;7757;52.626;4.746;2023-02-17T03:16:36;13.50;;;3.78;;
15312;SDS011;7757;52.626;4.746;2023-02-17T03:19:23;16.48;;;4.72;;
15312;SDS011;7757;52.626;4.746;2023-02-17T03:22:10;14.57;;;3.70;;
15312;SDS011;7757;52.626;4.746;2023-02-17T03:25:04;16.90;;;4.20;;
15312;SDS011;7757;52.626;4.746;2023-02-17T03:27:50;16.15;;;4.22;;
15312;SDS011;7757;52.626;4.746;2023-02-17T03:30:35;13.48;;;4.15;;
15312;SDS011;7757;52.626;4.746;2023-02-17T03:33:20;16.52;;;4.40;;
15312;SDS011;7757;52.626;4.746;2023-02-17T03:36:06;15.30;;;4.30;;
15312;SDS011;7757;52.626;4.746;2023-02-17T03:38:51;15.48;;;4.40;;
15312;SDS011;7757;52.626;4.746;2023-02-17T03:41:38;11.65;;;3.67;;
15312;SDS011;7757;52.626;4.746;2023-02-17T03:44:24;18.27;;;4.28;;
15312;SDS011;7757;52.626;4.746;2023-02-17T03:47:09;13.13;;;3.78;;
15312;SDS011;7757;52.626;4.746;2023-02-17T03:49:54;16.02;;;4.10;;
15312;SDS011;7757;52.626;4.746;2023-02-17T03:52:40;17.10;;;4.38;;
15312;SDS011;7757;52.626;4.746;2023-02-17T03:55:25;13.95;;;4.03;;
15312;SDS011;7757;52.626;4.746;2023-02-17T03:58:12;14.38;;;3.60;;
15312;SDS011;7757;52.626;4.746;2023-02-17T04:00:57;14.10;;;4.28;;
15312;SDS011;7757;52.626;4.746;2023-02-17T04:03:43;16.70;;;4.50;;
15312;SDS011;7757;52.626;4.746;2023-02-17T04:06:28;18.15;;;4.40;;
15312;SDS011;7757;52.626;4.746;2023-02-17T04:09:13;15.32;;;4.10;;
15312;SDS011;7757;52.626;4.746;2023-02-17T04:11:59;14.30;;;4.15;;
15312;SDS011;7757;52.626;4.746;2023-02-17T04:14:45;14.93;;;4.07;;
15312;SDS011;7757;52.626;4.746;2023-02-17T04:17:31;13.93;;;3.97;;
15312;SDS011;7757;52.626;4.746;2023-02-17T04:20:16;16.15;;;4.00;;
15312;SDS011;7757;52.626;4.746;2023-02-17T04:23:02;15.32;;;4.07;;
15312;SDS011;7757;52.626;4.746;2023-02-17T04:25:48;13.20;;;4.00;;
15312;SDS011;7757;52.626;4.746;2023-02-17T04:28:34;24.75;;;4.28;;
15312;SDS011;7757;52.626;4.746;2023-02-17T04:31:23;17.40;;;4.20;;
15312;SDS011;7757;52.626;4.746;2023-02-17T04:34:10;16.80;;;3.42;;
15312;SDS011;7757;52.626;4.746;2023-02-17T04:36:56;12.77;;;3.78;;
15312;SDS011;7757;52.626;4.746;2023-02-17T04:39:41;11.80;;;3.72;;
15312;SDS011;7757;52.626;4.746;2023-02-17T04:42:27;15.15;;;4.15;;
15312;SDS011;7757;52.626;4.746;2023-02-17T04:45:12;15.07;;;3.67;;
15312;SDS011;7757;52.626;4.746;2023-02-17T04:47:59;12.95;;;4.18;;
15312;SDS011;7757;52.626;4.746;2023-02-17T04:50:44;12.63;;;3.85;;
15312;SDS011;7757;52.626;4.746;2023-02-17T04:53:30;12.52;;;3.22;;
15312;SDS011;7757;52.626;4.746;2023-02-17T04:56:18;15.40;;;4.50;;
15312;SDS011;7757;52.626;4.746;2023-02-17T04:59:03;13.80;;;3.75;;
15312;SDS011;7757;52.626;4.746;2023-02-17T05:01:48;18.10;;;4.38;;
15312;SDS011;7757;52.626;4.746;2023-02-17T05:04:35;16.42;;;4.03;;
15312;SDS011;7757;52.626;4.746;2023-02-17T05:07:21;13.65;;;3.63;;
15312;SDS011;7757;52.626;4.746;2023-02-17T05:10:06;15.18;;;4.00;;
15312;SDS011;7757;52.626;4.746;2023-02-17T05:12:52;15.88;;;4.05;;
15312;SDS011;7757;52.626;4.746;2023-02-17T05:15:37;14.10;;;3.88;;
15312;SDS011;7757;52.626;4.746;2023-02-17T05:18:23;17.05;;;4.35;;
15312;SDS011;7757;52.626;4.746;2023-02-17T05:21:09;16.25;;;3.78;;
15312;SDS011;7757;52.626;4.746;2023-02-17T05:23:55;16.98;;;4.65;;
15312;SDS011;7757;52.626;4.746;2023-02-17T05:26:40;12.85;;;3.65;;
15312;SDS011;7757;52.626;4.746;2023-02-17T05:29:25;17.30;;;4.28;;
15312;SDS011;7757;52.626;4.746;2023-02-17T05:32:11;14.55;;;3.75;;
15312;SDS011;7757;52.626;4.746;2023-02-17T05:34:56;15.85;;;3.90;;
15312;SDS011;7757;52.626;4.746;2023-02-17T05:37:43;17.77;;;4.07;;
15312;SDS011;7757;52.626;4.746;2023-02-17T05:40:28;15.35;;;3.80;;
15312;SDS011;7757;52.626;4.746;2023-02-17T05:43:13;15.60;;;3.85;;
15312;SDS011;7757;52.626;4.746;2023-02-17T05:46:00;16.00;;;4.28;;
15312;SDS011;7757;52.626;4.746;2023-02-17T05:48:46;14.20;;;3.75;;
15312;SDS011;7757;52.626;4.746;2023-02-17T05:51:31;15.07;;;4.10;;
15312;SDS011;7757;52.626;4.746;2023-02-17T05:54:18;16.10;;;3.97;;
15312;SDS011;7757;52.626;4.746;2023-02-17T05:57:03;16.25;;;3.83;;
15312;SDS011;7757;52.626;4.746;2023-02-17T05:59:49;15.48;;;3.80;;
15312;SDS011;7757;52.626;4.746;2023-02-17T06:02:34;17.50;;;3.75;;
15312;SDS011;7757;52.626;4.746;2023-02-17T06:05:20;15.65;;;4.15;;
15312;SDS011;7757;52.626;4.746;2023-02-17T06:08:05;17.80;;;4.03;;
15312;SDS011;7757;52.626;4.746;2023-02-17T06:10:52;17.83;;;3.92;;
15312;SDS011;7757;52.626;4.746;2023-02-17T06:13:38;13.02;;;3.25;;
15312;SDS011;7757;52.626;4.746;2023-02-17T06:16:23;12.70;;;3.80;;
15312;SDS011;7757;52.626;4.746;2023-02-17T06:19:08;15.40;;;3.70;;
15312;SDS011;7757;52.626;4.746;2023-02-17T06:21:54;15.25;;;3.55;;
15312;SDS011;7757;52.626;4.746;2023-02-17T06:24:39;16.60;;;3.83;;
15312;SDS011;7757;52.626;4.746;2023-02-17T06:27:26;16.00;;;4.07;;
15312;SDS011;7757;52.626;4.746;2023-02-17T06:30:12;12.45;;;3.63;;
15312;SDS011;7757;52.626;4.746;2023-02-17T06:32:58;17.17;;;3.60;;
15312;SDS011;7757;52.626;4.746;2023-02-17T06:35:46;14.95;;;3.40;;
15312;SDS011;7757;52.626;4.746;2023-02-17T06:38:32;13.00;;;3.45;;
15312;SDS011;7757;52.626;4.746;2023-02-17T06:41:18;12.63;;;3.47;;
15312;SDS011;7757;52.626;4.746;2023-02-17T06:44:04;13.80;;;3.50;;
15312;SDS011;7757;52.626;4.746;2023-02-17T06:46:49;16.70;;;4.18;;
15312;SDS011;7757;52.626;4.746;2023-02-17T06:49:35;17.02;;;3.67;;
15312;SDS011;7757;52.626;4.746;2023-02-17T06:52:20;18.88;;;4.05;;
15312;SDS011;7757;52.626;4.746;2023-02-17T06:55:06;19.52;;;3.80;;
15312;SDS011;7757;52.626;4.746;2023-02-17T06:57:52;18.00;;;3.45;;
15312;SDS011;7757;52.626;4.746;2023-02-17T07:00:39;16.95;;;4.10;;
15312;SDS011;7757;52.626;4.746;2023-02-17T07:03:24;18.85;;;4.28;;
15312;SDS011;7757;52.626;4.746;2023-02-17T07:06:10;19.77;;;4.00;;
15312;SDS011;7757;52.626;4.746;2023-02-17T07:08:55;15.10;;;3.72;;
15312;SDS011;7757;52.626;4.746;2023-02-17T07:11:40;23.50;;;3.97;;
15312;SDS011;7757;52.626;4.746;2023-02-17T07:14:27;20.80;;;3.88;;
15312;SDS011;7757;52.626;4.746;2023-02-17T07:17:14;18.35;;;3.40;;
15312;SDS011;7757;52.626;4.746;2023-02-17T07:20:00;18.27;;;4.03;;
15312;SDS011;7757;52.626;4.746;2023-02-17T07:22:46;31.08;;;5.05;;
15312;SDS011;7757;52.626;4.746;2023-02-17T07:25:31;18.92;;;3.90;;
15312;SDS011;7757;52.626;4.746;2023-02-17T07:28:17;16.73;;;3.65;;
15312;SDS011;7757;52.626;4.746;2023-02-17T07:31:05;19.02;;;4.20;;
15312;SDS011;7757;52.626;4.746;2023-02-17T07:33:52;21.10;;;4.15;;
15312;SDS011;7757;52.626;4.746;2023-02-17T07:36:37;24.70;;;5.00;;
15312;SDS011;7757;52.626;4.746;2023-02-17T07:39:23;20.77;;;4.35;;
15312;SDS011;7757;52.626;4.746;2023-02-17T07:42:09;19.20;;;4.55;;
15312;SDS011;7757;52.626;4.746;2023-02-17T07:44:54;18.50;;;4.80;;
15312;SDS011;7757;52.626;4.746;2023-02-17T07:47:40;15.38;;;3.75;;
15312;SDS011;7757;52.626;4.746;2023-02-17T07:50:26;20.42;;;4.20;;
15312;SDS011;7757;52.626;4.746;2023-02-17T07:53:12;19.60;;;4.05;;
15312;SDS011;7757;52.626;4.746;2023-02-17T07:55:57;17.98;;;3.78;;
15312;SDS011;7757;52.626;4.746;2023-02-17T07:58:43;17.67;;;4.10;;
15312;SDS011;7757;52.626;4.746;2023-02-17T08:01:29;17.40;;;4.20;;
15312;SDS011;7757;52.626;4.746;2023-02-17T08:04:14;17.65;;;3.92;;
15312;SDS011;7757;52.626;4.746;2023-02-17T08:07:01;15.68;;;3.80;;
15312;SDS011;7757;52.626;4.746;2023-02-17T08:09:46;14.77;;;3.97;;
15312;SDS011;7757;52.626;4.746;2023-02-17T08:12:49;20.27;;;4.38;;
15312;SDS011;7757;52.626;4.746;2023-02-17T08:15:52;15.30;;;4.05;;
15312;SDS011;7757;52.626;4.746;2023-02-17T08:18:37;15.85;;;3.95;;
15312;SDS011;7757;52.626;4.746;2023-02-17T08:21:23;19.73;;;4.63;;
15312;SDS011;7757;52.626;4.746;2023-02-17T08:24:11;19.08;;;4.43;;
15312;SDS011;7757;52.626;4.746;2023-02-17T08:26:58;15.30;;;4.32;;
15312;SDS011;7757;52.626;4.746;2023-02-17T08:29:43;15.68;;;4.25;;
15312;SDS011;7757;52.626;4.746;2023-02-17T08:32:29;17.50;;;4.13;;
15312;SDS011;7757;52.626;4.746;2023-02-17T08:35:14;18.63;;;4.50;;
15312;SDS011;7757;52.626;4.746;2023-02-17T08:38:01;17.23;;;4.30;;
15312;SDS011;7757;52.626;4.746;2023-02-17T08:40:48;17.42;;;4.10;;
15312;SDS011;7757;52.626;4.746;2023-02-17T08:43:34;15.57;;;4.18;;
15312;SDS011;7757;52.626;4.746;2023-02-17T08:46:20;15.55;;;3.85;;
15312;SDS011;7757;52.626;4.746;2023-02-17T08:49:05;20.48;;;4.40;;
15312;SDS011;7757;52.626;4.746;2023-02-17T08:51:51;17.77;;;4.15;;
15312;SDS011;7757;52.626;4.746;2023-02-17T08:54:37;17.27;;;4.10;;
15312;SDS011;7757;52.626;4.746;2023-02-17T08:57:23;20.55;;;4.05;;
15312;SDS011;7757;52.626;4.746;2023-02-17T09:00:10;18.42;;;4.65;;
15312;SDS011;7757;52.626;4.746;2023-02-17T09:02:55;19.73;;;4.40;;
15312;SDS011;7757;52.626;4.746;2023-02-17T09:05:41;18.20;;;4.40;;
15312;SDS011;7757;52.626;4.746;2023-02-17T09:08:26;30.73;;;5.15;;
15312;SDS011;7757;52.626;4.746;2023-02-17T09:11:12;20.10;;;4.53;;
15312;SDS011;7757;52.626;4.746;2023-02-17T09:14:01;19.05;;;4.85;;
15312;SDS011;7757;52.626;4.746;2023-02-17T09:16:47;20.55;;;4.70;;
15312;SDS011;7757;52.626;4.746;2023-02-17T09:19:32;19.40;;;4.47;;
15312;SDS011;7757;52.626;4.746;2023-02-17T09:22:17;23.63;;;4.75;;
15312;SDS011;7757;52.626;4.746;2023-02-17T09:25:03;22.23;;;4.20;;
15312;SDS011;7757;52.626;4.746;2023-02-17T09:27:49;17.65;;;4.00;;
15312;SDS011;7757;52.626;4.746;2023-02-17T09:30:36;20.58;;;4.43;;
15312;SDS011;7757;52.626;4.746;2023-02-17T09:33:21;19.00;;;4.55;;
15312;SDS011;7757;52.626;4.746;2023-02-17T09:36:07;17.77;;;4.05;;
15312;SDS011;7757;52.626;4.746;2023-02-17T09:38:54;19.23;;;4.10;;
15312;SDS011;7757;52.626;4.746;2023-02-17T09:41:42;21.25;;;3.92;;
15312;SDS011;7757;52.626;4.746;2023-02-17T09:44:32;14.88;;;3.92;;
15312;SDS011;7757;52.626;4.746;2023-02-17T09:50:17;16.70;;;3.60;;
15312;SDS011;7757;52.626;4.746;2023-02-17T09:53:06;15.63;;;3.90;;
15312;SDS011;7757;52.626;4.746;2023-02-17T09:56:00;20.70;;;4.22;;
15312;SDS011;7757;52.626;4.746;2023-02-17T09:58:49;15.93;;;3.83;;
15312;SDS011;7757;52.626;4.746;2023-02-17T10:01:37;16.60;;;3.20;;
15312;SDS011;7757;52.626;4.746;2023-02-17T10:04:27;21.98;;;3.80;;
15312;SDS011;7757;52.626;4.746;2023-02-17T10:07:20;17.02;;;3.78;;
15312;SDS011;7757;52.626;4.746;2023-02-17T10:10:13;13.95;;;3.40;;
15312;SDS011;7757;52.626;4.746;2023-02-17T10:13:02;13.30;;;4.00;;
15312;SDS011;7757;52.626;4.746;2023-02-17T10:15:51;17.65;;;3.38;;
15312;SDS011;7757;52.626;4.746;2023-02-17T10:18:38;18.58;;;3.80;;
15312;SDS011;7757;52.626;4.746;2023-02-17T10:21:29;16.45;;;3.50;;
15312;SDS011;7757;52.626;4.746;2023-02-17T10:24:19;14.80;;;3.83;;
15312;SDS011;7757;52.626;4.746;2023-02-17T10:30:29;15.43;;;3.63;;
15312;SDS011;7757;52.626;4.746;2023-02-17T10:33:20;17.70;;;3.42;;
15312;SDS011;7757;52.626;4.746;2023-02-17T10:36:11;13.40;;;3.40;;
15312;SDS011;7757;52.626;4.746;2023-02-17T10:39:05;15.30;;;3.40;;
15312;SDS011;7757;52.626;4.746;2023-02-17T10:41:58;16.85;;;3.28;;
15312;SDS011;7757;52.626;4.746;2023-02-17T10:44:44;15.73;;;3.03;;
15312;SDS011;7757;52.626;4.746;2023-02-17T10:47:29;13.45;;;3.17;;
15312;SDS011;7757;52.626;4.746;2023-02-17T10:50:16;16.83;;;3.50;;
15312;SDS011;7757;52.626;4.746;2023-02-17T10:53:12;15.88;;;3.38;;
15312;SDS011;7757;52.626;4.746;2023-02-17T10:56:02;15.00;;;3.10;;
15312;SDS011;7757;52.626;4.746;2023-02-17T10:58:52;13.18;;;3.40;;
15312;SDS011;7757;52.626;4.746;2023-02-17T11:01:41;13.15;;;3.20;;
15312;SDS011;7757;52.626;4.746;2023-02-17T11:04:37;14.52;;;3.60;;
15312;SDS011;7757;52.626;4.746;2023-02-17T11:07:26;15.45;;;3.45;;
15312;SDS011;7757;52.626;4.746;2023-02-17T11:10:20;18.00;;;3.53;;
15312;SDS011;7757;52.626;4.746;2023-02-17T11:13:25;13.18;;;3.30;;
15312;SDS011;7757;52.626;4.746;2023-02-17T11:16:20;16.20;;;3.10;;
15312;SDS011;7757;52.626;4.746;2023-02-17T11:19:17;20.65;;;3.40;;
15312;SDS011;7757;52.626;4.746;2023-02-17T11:22:25;14.98;;;2.78;;
15312;SDS011;7757;52.626;4.746;2023-02-17T11:25:19;13.25;;;2.70;;
15312;SDS011;7757;52.626;4.746;2023-02-17T11:28:10;18.55;;;3.25;;
15312;SDS011;7757;52.626;4.746;2023-02-17T11:30:58;18.13;;;3.28;;
15312;SDS011;7757;52.626;4.746;2023-02-17T11:33:45;16.60;;;3.05;;
15312;SDS011;7757;52.626;4.746;2023-02-17T11:36:30;18.67;;;3.60;;
15312;SDS011;7757;52.626;4.746;2023-02-17T11:39:17;17.63;;;3.00;;
15312;SDS011;7757;52.626;4.746;2023-02-17T11:42:12;15.43;;;3.03;;
15312;SDS011;7757;52.626;4.746;2023-02-17T11:44:59;19.25;;;3.45;;
15312;SDS011;7757;52.626;4.746;2023-02-17T11:47:54;16.58;;;3.03;;
15312;SDS011;7757;52.626;4.746;2023-02-17T11:50:56;18.88;;;3.67;;
15312;SDS011;7757;52.626;4.746;2023-02-17T11:53:48;20.60;;;3.83;;
15312;SDS011;7757;52.626;4.746;2023-02-17T11:56:40;17.52;;;3.10;;
15312;SDS011;7757;52.626;4.746;2023-02-17T11:59:34;20.85;;;3.25;;
15312;SDS011;7757;52.626;4.746;2023-02-17T12:02:32;15.88;;;3.42;;
15312;SDS011;7757;52.626;4.746;2023-02-17T12:05:29;17.27;;;2.72;;
15312;SDS011;7757;52.626;4.746;2023-02-17T12:08:33;17.23;;;3.05;;
15312;SDS011;7757;52.626;4.746;2023-02-17T12:11:31;16.30;;;3.25;;
15312;SDS011;7757;52.626;4.746;2023-02-17T12:14:33;15.93;;;3.17;;
15312;SDS011;7757;52.626;4.746;2023-02-17T12:17:40;14.63;;;2.90;;
15312;SDS011;7757;52.626;4.746;2023-02-17T12:20:35;16.00;;;2.88;;
15312;SDS011;7757;52.626;4.746;2023-02-17T12:23:32;15.77;;;3.53;;
15312;SDS011;7757;52.626;4.746;2023-02-17T12:26:35;20.00;;;3.10;;
15312;SDS011;7757;52.626;4.746;2023-02-17T12:29:31;18.85;;;3.20;;
15312;SDS011;7757;52.626;4.746;2023-02-17T12:32:32;17.98;;;2.75;;
15312;SDS011;7757;52.626;4.746;2023-02-17T12:35:29;15.63;;;2.63;;
15312;SDS011;7757;52.626;4.746;2023-02-17T12:38:26;12.52;;;2.38;;
15312;SDS011;7757;52.626;4.746;2023-02-17T12:41:16;16.83;;;2.83;;
15312;SDS011;7757;52.626;4.746;2023-02-17T12:44:04;14.80;;;2.95;;
15312;SDS011;7757;52.626;4.746;2023-02-17T12:46:57;17.17;;;3.20;;
15312;SDS011;7757;52.626;4.746;2023-02-17T12:49:47;13.05;;;2.55;;
15312;SDS011;7757;52.626;4.746;2023-02-17T12:52:38;15.85;;;2.88;;
15312;SDS011;7757;52.626;4.746;2023-02-17T12:55:28;15.95;;;2.67;;
15312;SDS011;7757;52.626;4.746;2023-02-17T12:58:21;17.92;;;2.78;;
15312;SDS011;7757;52.626;4.746;2023-02-17T13:01:10;17.13;;;2.50;;
15312;SDS011;7757;52.626;4.746;2023-02-17T13:03:59;12.73;;;2.42;;
15312;SDS011;7757;52.626;4.746;2023-02-17T13:06:46;12.90;;;2.28;;
15312;SDS011;7757;52.626;4.746;2023-02-17T13:09:36;13.90;;;2.40;;
15312;SDS011;7757;52.626;4.746;2023-02-17T13:12:33;14.10;;;2.47;;
15312;SDS011;7757;52.626;4.746;2023-02-17T13:15:29;11.70;;;2.70;;
15312;SDS011;7757;52.626;4.746;2023-02-17T13:18:25;18.85;;;2.65;;
15312;SDS011;7757;52.626;4.746;2023-02-17T13:21:16;12.35;;;2.28;;
15312;SDS011;7757;52.626;4.746;2023-02-17T13:24:13;16.73;;;2.70;;
15312;SDS011;7757;52.626;4.746;2023-02-17T13:27:09;12.13;;;2.38;;
15312;SDS011;7757;52.626;4.746;2023-02-17T13:30:02;16.65;;;2.60;;
15312;SDS011;7757;52.626;4.746;2023-02-17T13:32:59;15.20;;;2.22;;
15312;SDS011;7757;52.626;4.746;2023-02-17T13:35:45;10.50;;;1.90;;
15312;SDS011;7757;52.626;4.746;2023-02-17T13:38:31;13.80;;;2.30;;
15312;SDS011;7757;52.626;4.746;2023-02-17T13:41:17;16.50;;;2.33;;
15312;SDS011;7757;52.626;4.746;2023-02-17T13:44:16;17.75;;;2.58;;
15312;SDS011;7757;52.626;4.746;2023-02-17T13:47:13;11.68;;;2.25;;
15312;SDS011;7757;52.626;4.746;2023-02-17T13:50:00;11.32;;;2.13;;
15312;SDS011;7757;52.626;4.746;2023-02-17T13:52:46;12.75;;;2.13;;
15312;SDS011;7757;52.626;4.746;2023-02-17T13:55:31;12.50;;;2.50;;
15312;SDS011;7757;52.626;4.746;2023-02-17T13:58:20;15.50;;;2.28;;
15312;SDS011;7757;52.626;4.746;2023-02-17T14:01:11;11.07;;;2.17;;
15312;SDS011;7757;52.626;4.746;2023-02-17T14:04:00;12.63;;;1.98;;
15312;SDS011;7757;52.626;4.746;2023-02-17T14:06:46;17.50;;;2.58;;
15312;SDS011;7757;52.626;4.746;2023-02-17T14:09:33;11.65;;;2.40;;
15312;SDS011;7757;52.626;4.746;2023-02-17T14:12:20;11.27;;;2.28;;
15312;SDS011;7757;52.626;4.746;2023-02-17T14:15:12;12.85;;;2.30;;
15312;SDS011;7757;52.626;4.746;2023-02-17T14:17:59;15.98;;;2.40;;
15312;SDS011;7757;52.626;4.746;2023-02-17T14:20:46;11.82;;;2.63;;
15312;SDS011;7757;52.626;4.746;2023-02-17T14:23:42;15.15;;;2.28;;
15312;SDS011;7757;52.626;4.746;2023-02-17T14:26:30;13.40;;;2.05;;
15312;SDS011;7757;52.626;4.746;2023-02-17T14:29:19;13.13;;;2.22;;
15312;SDS011;7757;52.626;4.746;2023-02-17T14:32:05;13.93;;;2.70;;
15312;SDS011;7757;52.626;4.746;2023-02-17T14:34:50;15.65;;;2.50;;
15312;SDS011;7757;52.626;4.746;2023-02-17T14:37:37;11.40;;;2.00;;
15312;SDS011;7757;52.626;4.746;2023-02-17T14:40:25;14.93;;;2.00;;
15312;SDS011;7757;52.626;4.746;2023-02-17T14:43:10;13.32;;;2.30;;
15312;SDS011;7757;52.626;4.746;2023-02-17T14:45:55;17.13;;;2.17;;
15312;SDS011;7757;52.626;4.746;2023-02-17T14:48:41;12.40;;;2.13;;
15312;SDS011;7757;52.626;4.746;2023-02-17T14:51:30;17.95;;;2.88;;
15312;SDS011;7757;52.626;4.746;2023-02-17T14:54:18;10.95;;;1.80;;
15312;SDS011;7757;52.626;4.746;2023-02-17T14:57:04;16.60;;;2.45;;
15312;SDS011;7757;52.626;4.746;2023-02-17T14:59:51;11.55;;;2.10;;
15312;SDS011;7757;52.626;4.746;2023-02-17T15:02:40;15.50;;;2.17;;
15312;SDS011;7757;52.626;4.746;2023-02-17T15:05:25;10.27;;;2.05;;
15312;SDS011;7757;52.626;4.746;2023-02-17T15:08:11;12.00;;;2.30;;
15312;SDS011;7757;52.626;4.746;2023-02-17T15:11:00;11.23;;;2.08;;
15312;SDS011;7757;52.626;4.746;2023-02-17T15:13:46;13.95;;;2.30;;
15312;SDS011;7757;52.626;4.746;2023-02-17T15:16:32;15.32;;;2.00;;
15312;SDS011;7757;52.626;4.746;2023-02-17T15:19:17;14.63;;;2.53;;
15312;SDS011;7757;52.626;4.746;2023-02-17T15:22:03;12.88;;;2.10;;
15312;SDS011;7757;52.626;4.746;2023-02-17T15:24:49;13.13;;;2.00;;
15312;SDS011;7757;52.626;4.746;2023-02-17T15:27:36;14.43;;;2.22;;
15312;SDS011;7757;52.626;4.746;2023-02-17T15:30:21;14.50;;;2.05;;
15312;SDS011;7757;52.626;4.746;2023-02-17T15:33:09;13.38;;;2.17;;
15312;SDS011;7757;52.626;4.746;2023-02-17T15:35:55;14.73;;;2.00;;
15312;SDS011;7757;52.626;4.746;2023-02-17T15:38:41;11.13;;;1.85;;
15312;SDS011;7757;52.626;4.746;2023-02-17T15:41:26;17.40;;;2.13;;
15312;SDS011;7757;52.626;4.746;2023-02-17T15:44:15;15.05;;;2.22;;
15312;SDS011;7757;52.626;4.746;2023-02-17T15:47:03;15.45;;;2.42;;
15312;SDS011;7757;52.626;4.746;2023-02-17T15:49:48;14.80;;;2.00;;
15312;SDS011;7757;52.626;4.746;2023-02-17T15:52:33;14.65;;;2.33;;
15312;SDS011;7757;52.626;4.746;2023-02-17T15:55:19;15.38;;;2.15;;
15312;SDS011;7757;52.626;4.746;2023-02-17T15:58:09;14.85;;;2.88;;
15312;SDS011;7757;52.626;4.746;2023-02-17T16:01:00;10.45;;;2.10;;
15312;SDS011;7757;52.626;4.746;2023-02-17T16:03:46;12.93;;;2.20;;
15312;SDS011;7757;52.626;4.746;2023-02-17T16:06:32;17.17;;;2.53;;
15312;SDS011;7757;52.626;4.746;2023-02-17T16:09:17;15.20;;;2.40;;
15312;SDS011;7757;52.626;4.746;2023-02-17T16:12:04;11.93;;;1.83;;
15312;SDS011;7757;52.626;4.746;2023-02-17T16:14:49;13.77;;;2.20;;
15312;SDS011;7757;52.626;4.746;2023-02-17T16:17:36;15.85;;;2.58;;
15312;SDS011;7757;52.626;4.746;2023-02-17T16:20:23;15.88;;;2.50;;
15312;SDS011;7757;52.626;4.746;2023-02-17T16:23:10;12.55;;;2.13;;
15312;SDS011;7757;52.626;4.746;2023-02-17T16:25:55;17.58;;;2.50;;
15312;SDS011;7757;52.626;4.746;2023-02-17T16:28:41;13.45;;;2.13;;
15312;SDS011;7757;52.626;4.746;2023-02-17T16:31:28;12.85;;;2.55;;
15312;SDS011;7757;52.626;4.746;2023-02-17T16:34:20;17.90;;;2.80;;
15312;SDS011;7757;52.626;4.746;2023-02-17T16:37:10;19.02;;;2.83;;
15312;SDS011;7757;52.626;4.746;2023-02-17T16:39:57;15.88;;;3.45;;
15312;SDS011;7757;52.626;4.746;2023-02-17T16:42:43;20.65;;;3.95;;
15312;SDS011;7757;52.626;4.746;2023-02-17T16:45:29;23.00;;;3.90;;
15312;SDS011;7757;52.626;4.746;2023-02-17T16:48:16;22.33;;;4.75;;
15312;SDS011;7757;52.626;4.746;2023-02-17T16:51:02;22.08;;;5.40;;
15312;SDS011;7757;52.626;4.746;2023-02-17T16:53:48;23.70;;;6.32;;
15312;SDS011;7757;52.626;4.746;2023-02-17T16:56:34;21.20;;;5.85;;
15312;SDS011;7757;52.626;4.746;2023-02-17T16:59:22;25.27;;;6.50;;
15312;SDS011;7757;52.626;4.746;2023-02-17T17:02:08;33.20;;;7.32;;
15312;SDS011;7757;52.626;4.746;2023-02-17T17:04:55;30.02;;;8.10;;
15312;SDS011;7757;52.626;4.746;2023-02-17T17:07:41;32.33;;;8.10;;